createdAt,value
2017-09-20T00:00:46.913Z,11.80
2017-09-20T00:03:14.474Z,11.70
2017-09-20T00:05:42.046Z,11.70
2017-09-20T00:08:10.410Z,11.80
2017-09-20T00:10:38.880Z,11.80
2017-09-20T00:13:06.440Z,11.80
2017-09-20T00:15:34.076Z,11.90
2017-09-20T00:18:01.672Z,11.80
2017-09-20T00:20:29.223Z,11.60
2017-09-20T00:22:56.812Z,11.60
2017-09-20T00:25:25.247Z,11.50
2017-09-20T00:27:52.810Z,11.50
2017-09-20T00:30:20.384Z,11.70
2017-09-20T00:32:47.966Z,11.70
2017-09-20T00:35:16.300Z,11.70
2017-09-20T00:37:44.003Z,11.70
2017-09-20T00:40:12.328Z,11.70
2017-09-20T00:42:39.887Z,11.70
2017-09-20T00:45:07.472Z,11.60
2017-09-20T00:47:36.539Z,11.80
2017-09-20T00:50:04.127Z,11.80
2017-09-20T00:52:31.687Z,11.90
2017-09-20T00:54:59.243Z,11.80
2017-09-20T00:57:26.905Z,11.80
2017-09-20T00:59:54.463Z,11.70
2017-09-20T01:02:22.068Z,11.40
2017-09-20T01:04:49.633Z,11.60
2017-09-20T01:07:17.234Z,11.50
2017-09-20T01:09:44.819Z,11.60
2017-09-20T01:12:13.147Z,11.70
2017-09-20T01:14:40.743Z,11.70
2017-09-20T01:17:09.072Z,11.80
2017-09-20T01:19:36.643Z,11.80
2017-09-20T01:22:16.018Z,11.80
2017-09-20T01:24:44.356Z,11.70
2017-09-20T01:27:11.986Z,11.70
2017-09-20T01:29:39.555Z,11.70
2017-09-20T01:32:07.211Z,11.70
2017-09-20T01:34:34.774Z,11.60
2017-09-20T01:37:02.439Z,11.60
2017-09-20T01:39:30.015Z,11.60
2017-09-20T01:41:57.600Z,11.60
2017-09-20T01:44:25.960Z,11.60
2017-09-20T01:46:53.522Z,11.60
2017-09-20T01:49:21.123Z,11.60
2017-09-20T01:51:48.707Z,11.60
2017-09-20T01:54:16.268Z,11.60
2017-09-20T01:56:43.944Z,11.50
2017-09-20T01:59:11.503Z,11.60
2017-09-20T02:01:39.214Z,11.70
2017-09-20T02:04:06.908Z,11.70
2017-09-20T02:06:34.471Z,11.70
2017-09-20T02:09:02.051Z,11.70
2017-09-20T02:11:29.611Z,11.60
2017-09-20T02:13:57.190Z,11.60
2017-09-20T02:16:25.535Z,11.60
2017-09-20T02:18:53.122Z,11.60
2017-09-20T02:21:20.675Z,11.60
2017-09-20T02:23:49.798Z,11.50
2017-09-20T02:26:17.368Z,11.60
2017-09-20T02:28:44.928Z,11.60
2017-09-20T02:31:12.542Z,11.60
2017-09-20T02:33:40.106Z,11.70
2017-09-20T02:36:07.662Z,11.60
2017-09-20T02:38:35.247Z,11.60
2017-09-20T02:41:02.830Z,11.60
2017-09-20T02:43:30.418Z,11.60
2017-09-20T02:45:57.984Z,11.70
2017-09-20T02:48:25.587Z,11.70
2017-09-20T02:50:53.158Z,11.70
2017-09-20T02:53:20.718Z,11.70
2017-09-20T02:55:48.307Z,11.80
2017-09-20T02:58:15.867Z,11.70
2017-09-20T03:00:43.480Z,11.60
2017-09-20T03:03:11.039Z,11.50
2017-09-20T03:05:38.609Z,11.60
2017-09-20T03:08:06.198Z,11.60
2017-09-20T03:10:33.768Z,11.60
2017-09-20T03:13:01.360Z,11.60
2017-09-20T03:15:29.705Z,11.60
2017-09-20T03:17:57.307Z,11.60
2017-09-20T03:20:24.900Z,11.60
2017-09-20T03:22:52.501Z,11.50
2017-09-20T03:25:20.857Z,11.40
2017-09-20T03:27:48.589Z,11.40
2017-09-20T03:30:16.280Z,11.40
2017-09-20T03:32:43.852Z,11.30
2017-09-20T03:35:11.452Z,11.40
2017-09-20T03:37:39.016Z,11.40
2017-09-20T03:40:06.611Z,11.40
2017-09-20T03:42:34.175Z,11.60
2017-09-20T03:45:01.739Z,11.50
2017-09-20T03:47:30.280Z,11.60
2017-09-20T03:49:58.060Z,11.50
2017-09-20T03:52:25.619Z,11.50
2017-09-20T03:54:53.207Z,11.40
2017-09-20T03:57:20.784Z,11.40
2017-09-20T03:59:49.148Z,11.30
2017-09-20T04:02:17.492Z,11.20
2017-09-20T04:04:45.132Z,11.20
2017-09-20T04:07:12.695Z,11.20
2017-09-20T04:09:40.253Z,11.20
2017-09-20T04:12:07.900Z,11.20
2017-09-20T04:14:35.479Z,11.10
2017-09-20T04:17:03.050Z,11.10
2017-09-20T04:19:30.647Z,11.10
2017-09-20T04:21:58.990Z,11.20
2017-09-20T04:24:26.671Z,11.10
2017-09-20T04:26:54.268Z,11.20
2017-09-20T04:29:21.884Z,11.10
2017-09-20T04:31:49.502Z,11.10
2017-09-20T04:34:17.083Z,10.90
2017-09-20T04:36:44.767Z,10.90
2017-09-20T04:39:13.851Z,11.00
2017-09-20T04:41:41.465Z,11.00
2017-09-20T04:44:09.027Z,11.10
2017-09-20T04:46:36.599Z,11.10
2017-09-20T04:49:04.248Z,11.10
2017-09-20T04:51:31.849Z,11.20
2017-09-20T04:53:59.420Z,11.10
2017-09-20T04:56:27.865Z,11.10
2017-09-20T04:58:55.452Z,11.00
2017-09-20T05:01:23.029Z,11.00
2017-09-20T05:03:51.395Z,11.00
2017-09-20T05:06:19.023Z,11.00
2017-09-20T05:08:46.736Z,11.00
2017-09-20T05:11:15.069Z,11.00
2017-09-20T05:13:42.647Z,11.00
2017-09-20T05:16:10.290Z,11.00
2017-09-20T05:18:37.867Z,11.00
2017-09-20T05:21:06.967Z,11.10
2017-09-20T05:23:35.316Z,11.10
2017-09-20T05:26:02.943Z,11.10
2017-09-20T05:28:30.547Z,11.10
2017-09-20T05:30:58.896Z,11.20
2017-09-20T05:33:26.485Z,11.20
2017-09-20T05:35:54.055Z,11.20
2017-09-20T05:38:21.665Z,11.10
2017-09-20T05:40:49.237Z,11.10
2017-09-20T05:43:16.815Z,11.10
2017-09-20T05:45:44.443Z,11.10
2017-09-20T05:48:12.025Z,11.10
2017-09-20T05:50:39.603Z,11.10
2017-09-20T05:53:07.356Z,11.10
2017-09-20T05:55:34.944Z,11.10
2017-09-20T05:58:03.329Z,11.20
2017-09-20T06:00:31.668Z,11.20
2017-09-20T06:02:59.247Z,11.10
2017-09-20T06:05:27.619Z,11.20
2017-09-20T06:07:55.206Z,11.20
2017-09-20T06:10:22.849Z,11.30
2017-09-20T06:12:51.203Z,11.30
2017-09-20T06:15:18.774Z,11.30
2017-09-20T06:17:46.372Z,11.30
2017-09-20T06:20:13.943Z,11.30
2017-09-20T06:22:41.536Z,11.40
2017-09-20T06:25:09.107Z,11.40
2017-09-20T06:27:37.487Z,11.30
2017-09-20T06:30:05.067Z,11.30
2017-09-20T06:32:32.643Z,11.30
2017-09-20T06:35:00.245Z,11.30
2017-09-20T06:37:27.853Z,11.40
2017-09-20T06:39:55.452Z,11.60
2017-09-20T06:42:23.049Z,11.60
2017-09-20T06:44:51.445Z,11.80
2017-09-20T06:47:19.012Z,11.80
2017-09-20T06:49:46.699Z,12.30
2017-09-20T06:52:14.291Z,12.50
2017-09-20T06:54:43.364Z,14.10
2017-09-20T06:57:10.971Z,14.10
2017-09-20T06:59:38.541Z,14.60
2017-09-20T07:02:06.112Z,14.30
2017-09-20T07:04:33.707Z,14.80
2017-09-20T07:07:01.275Z,15.30
2017-09-20T07:09:29.643Z,15.40
2017-09-20T07:11:57.211Z,15.40
2017-09-20T07:14:26.315Z,15.70
2017-09-20T07:16:54.647Z,15.50
2017-09-20T07:19:22.207Z,15.50
2017-09-20T07:21:49.907Z,14.50
2017-09-20T07:24:18.259Z,14.10
2017-09-20T07:26:45.869Z,14.10
2017-09-20T07:29:14.198Z,14.20
2017-09-20T07:31:41.790Z,14.10
2017-09-20T07:34:10.127Z,13.20
2017-09-20T07:36:37.711Z,13.20
2017-09-20T07:39:05.300Z,13.00
2017-09-20T07:41:32.988Z,12.80
2017-09-20T07:44:00.585Z,12.60
2017-09-20T07:46:28.163Z,12.60
2017-09-20T07:48:56.527Z,12.90
2017-09-20T07:51:24.100Z,12.90
2017-09-20T07:53:52.436Z,13.10
2017-09-20T07:56:20.031Z,13.10
2017-09-20T07:58:48.359Z,13.00
2017-09-20T08:01:15.956Z,12.90
2017-09-20T08:03:44.283Z,13.40
2017-09-20T08:06:11.847Z,13.40
2017-09-20T08:08:39.447Z,13.40
2017-09-20T08:11:07.014Z,13.20
2017-09-20T08:13:34.608Z,12.70
2017-09-20T08:16:02.189Z,12.80
2017-09-20T08:18:29.743Z,12.80
2017-09-20T08:20:57.343Z,12.80
2017-09-20T08:23:25.674Z,13.30
2017-09-20T08:25:53.292Z,13.30
2017-09-20T08:28:21.627Z,13.90
2017-09-20T08:30:49.206Z,13.90
2017-09-20T08:33:16.799Z,14.40
2017-09-20T08:35:44.372Z,14.70
2017-09-20T08:38:11.954Z,14.40
2017-09-20T08:40:39.731Z,13.80
2017-09-20T08:43:07.310Z,13.60
2017-09-20T08:45:34.979Z,13.70
2017-09-20T08:48:02.553Z,13.50
2017-09-20T08:50:30.912Z,13.50
2017-09-20T08:52:58.472Z,13.50
2017-09-20T08:55:26.828Z,13.50
2017-09-20T08:57:54.423Z,13.50
2017-09-20T09:00:22.758Z,14.10
2017-09-20T09:02:50.355Z,14.10
2017-09-20T09:05:18.828Z,15.10
2017-09-20T09:07:47.313Z,15.40
2017-09-20T09:10:15.719Z,15.50
2017-09-20T09:12:43.320Z,15.50
2017-09-20T09:15:11.007Z,15.80
2017-09-20T09:17:39.348Z,15.70
2017-09-20T09:20:06.960Z,15.70
2017-09-20T09:22:34.664Z,15.10
2017-09-20T09:25:02.223Z,15.20
2017-09-20T09:27:29.838Z,15.70
2017-09-20T09:29:58.176Z,15.30
2017-09-20T09:32:25.761Z,15.30
2017-09-20T09:34:54.099Z,15.30
2017-09-20T09:37:21.700Z,15.30
2017-09-20T09:39:50.039Z,16.20
2017-09-20T09:42:17.643Z,16.20
2017-09-20T09:44:45.247Z,16.70
2017-09-20T09:47:12.823Z,16.10
2017-09-20T09:49:40.430Z,15.90
2017-09-20T09:52:08.003Z,16.00
2017-09-20T09:54:35.568Z,16.00
2017-09-20T09:57:03.151Z,15.70
2017-09-20T09:59:30.797Z,16.60
2017-09-20T10:01:58.387Z,15.80
2017-09-20T10:04:25.968Z,15.40
2017-09-20T10:06:54.371Z,16.30
2017-09-20T10:09:21.987Z,16.20
2017-09-20T10:11:49.555Z,16.20
2017-09-20T10:14:18.015Z,15.50
2017-09-20T10:16:45.760Z,15.50
2017-09-20T10:19:13.393Z,15.40
2017-09-20T10:21:40.987Z,15.40
2017-09-20T10:24:08.571Z,14.90
2017-09-20T10:26:36.927Z,14.50
2017-09-20T10:29:05.995Z,14.70
2017-09-20T10:31:33.599Z,14.70
2017-09-20T10:34:01.947Z,15.10
2017-09-20T10:36:29.573Z,15.10
2017-09-20T10:38:57.148Z,15.10
2017-09-20T10:41:24.708Z,15.10
2017-09-20T10:43:52.308Z,14.90
2017-09-20T10:46:20.646Z,15.30
2017-09-20T10:48:48.215Z,15.30
2017-09-20T10:51:16.137Z,15.20
2017-09-20T10:53:43.706Z,15.40
2017-09-20T10:56:11.272Z,15.20
2017-09-20T10:58:38.883Z,15.10
2017-09-20T11:01:07.232Z,15.40
2017-09-20T11:03:34.830Z,15.40
2017-09-20T11:06:03.347Z,17.20
2017-09-20T11:08:31.007Z,17.20
2017-09-20T11:10:58.607Z,17.40
2017-09-20T11:13:26.995Z,15.70
2017-09-20T11:15:54.563Z,15.60
2017-09-20T11:18:22.224Z,15.80
2017-09-20T11:20:50.563Z,14.70
2017-09-20T11:23:18.194Z,14.70
2017-09-20T11:25:45.784Z,14.70
2017-09-20T11:28:13.435Z,15.00
2017-09-20T11:30:41.065Z,15.50
2017-09-20T11:33:08.706Z,15.70
2017-09-20T11:35:37.090Z,16.10
2017-09-20T11:38:05.555Z,15.90
2017-09-20T11:40:34.024Z,16.40
2017-09-20T11:43:01.588Z,16.40
2017-09-20T11:45:29.148Z,16.50
2017-09-20T11:47:56.741Z,15.70
2017-09-20T11:50:24.309Z,15.90
2017-09-20T11:52:51.927Z,16.10
2017-09-20T11:55:19.590Z,15.80
2017-09-20T11:57:47.955Z,15.80
2017-09-20T12:00:16.275Z,15.70
2017-09-20T12:02:43.910Z,15.60
2017-09-20T12:05:12.277Z,15.80
2017-09-20T12:07:39.867Z,15.80
2017-09-20T12:10:07.469Z,15.40
2017-09-20T12:12:35.052Z,15.60
2017-09-20T12:15:02.620Z,16.60
2017-09-20T12:17:30.975Z,18.00
2017-09-20T12:19:58.539Z,18.00
2017-09-20T12:22:26.097Z,17.50
2017-09-20T12:24:53.695Z,16.10
2017-09-20T12:27:21.257Z,15.80
2017-09-20T12:29:48.822Z,15.90
2017-09-20T12:32:16.516Z,17.00
2017-09-20T12:34:44.091Z,16.40
2017-09-20T12:37:11.689Z,16.20
2017-09-20T12:39:39.259Z,16.50
2017-09-20T12:42:06.845Z,16.40
2017-09-20T12:44:34.437Z,16.50
2017-09-20T12:47:02.913Z,16.00
2017-09-20T12:49:30.521Z,16.00
2017-09-20T12:51:58.092Z,16.60
2017-09-20T12:54:25.679Z,16.80
2017-09-20T12:56:53.238Z,17.10
2017-09-20T12:59:20.888Z,17.00
2017-09-20T13:01:48.551Z,16.30
2017-09-20T13:04:17.060Z,16.20
2017-09-20T13:06:45.452Z,16.20
2017-09-20T13:09:13.023Z,16.20
2017-09-20T13:11:40.623Z,16.20
2017-09-20T13:14:08.199Z,17.00
2017-09-20T13:16:35.801Z,17.50
2017-09-20T13:19:03.439Z,16.70
2017-09-20T13:21:31.790Z,17.90
2017-09-20T13:23:59.364Z,17.90
2017-09-20T13:26:27.724Z,15.60
2017-09-20T13:28:55.316Z,15.60
2017-09-20T13:31:23.652Z,15.40
2017-09-20T13:33:51.383Z,15.40
2017-09-20T13:36:19.135Z,15.50
2017-09-20T13:38:46.699Z,15.50
2017-09-20T13:41:14.300Z,16.30
2017-09-20T13:43:41.888Z,16.30
2017-09-20T13:46:10.250Z,15.50
2017-09-20T13:48:37.908Z,15.50
2017-09-20T13:51:05.628Z,15.30
2017-09-20T13:53:33.262Z,15.30
2017-09-20T13:56:00.962Z,15.10
2017-09-20T13:58:28.551Z,15.20
2017-09-20T14:00:56.115Z,15.40
2017-09-20T14:03:24.502Z,15.80
2017-09-20T14:05:52.088Z,15.80
2017-09-20T14:08:19.699Z,15.70
2017-09-20T14:10:47.256Z,15.40
2017-09-20T14:13:14.808Z,15.80
2017-09-20T14:15:42.531Z,16.00
2017-09-20T14:18:10.108Z,15.60
2017-09-20T14:20:37.864Z,15.50
2017-09-20T14:23:05.443Z,15.80
2017-09-20T14:25:33.019Z,15.90
2017-09-20T14:28:00.621Z,16.00
2017-09-20T14:30:28.207Z,16.40
2017-09-20T14:32:55.791Z,16.20
2017-09-20T14:35:23.393Z,15.90
2017-09-20T14:37:50.947Z,15.80
2017-09-20T14:40:18.508Z,15.90
2017-09-20T14:42:46.115Z,16.00
2017-09-20T14:45:13.691Z,15.70
2017-09-20T14:47:41.287Z,15.70
2017-09-20T14:50:08.856Z,15.80
2017-09-20T14:52:36.415Z,15.40
2017-09-20T14:55:04.011Z,15.60
2017-09-20T14:57:33.091Z,15.80
2017-09-20T15:00:00.719Z,15.80
2017-09-20T15:02:28.295Z,15.70
2017-09-20T15:04:55.925Z,15.40
2017-09-20T15:07:23.498Z,15.30
2017-09-20T15:09:51.111Z,15.40
2017-09-20T15:12:18.770Z,15.20
2017-09-20T15:14:46.447Z,15.10
2017-09-20T15:17:14.787Z,15.20
2017-09-20T15:19:42.357Z,15.20
2017-09-20T15:22:10.730Z,15.50
2017-09-20T15:24:38.335Z,15.50
2017-09-20T15:27:05.896Z,15.50
2017-09-20T15:29:33.568Z,15.40
2017-09-20T15:32:01.135Z,15.50
2017-09-20T15:34:28.732Z,15.30
2017-09-20T15:36:56.305Z,15.20
2017-09-20T15:39:24.679Z,15.30
2017-09-20T15:41:52.244Z,15.30
2017-09-20T15:44:20.596Z,15.40
2017-09-20T15:46:48.200Z,15.40
2017-09-20T15:49:15.785Z,15.40
2017-09-20T15:51:44.415Z,15.90
2017-09-20T15:54:11.987Z,16.50
2017-09-20T15:56:40.414Z,17.50
2017-09-20T15:59:08.012Z,17.50
2017-09-20T16:01:35.575Z,17.20
2017-09-20T16:04:03.928Z,15.80
2017-09-20T16:06:31.523Z,15.80
2017-09-20T16:08:59.919Z,15.80
2017-09-20T16:11:27.521Z,15.80
2017-09-20T16:13:55.085Z,16.00
2017-09-20T16:16:22.732Z,16.20
2017-09-20T16:18:50.303Z,15.90
2017-09-20T16:21:18.667Z,15.80
2017-09-20T16:23:46.243Z,15.80
2017-09-20T16:26:14.691Z,15.50
2017-09-20T16:28:42.284Z,15.50
2017-09-20T16:31:09.873Z,15.60
2017-09-20T16:33:38.240Z,15.80
2017-09-20T16:36:06.649Z,15.80
2017-09-20T16:38:34.224Z,15.80
2017-09-20T16:41:01.867Z,15.50
2017-09-20T16:43:29.465Z,15.10
2017-09-20T16:45:57.099Z,15.00
2017-09-20T16:48:24.668Z,15.00
2017-09-20T16:50:52.268Z,14.90
2017-09-20T16:53:20.620Z,14.80
2017-09-20T16:55:48.214Z,14.80
2017-09-20T16:58:16.595Z,14.70
2017-09-20T17:00:44.999Z,14.80
2017-09-20T17:03:12.583Z,14.70
2017-09-20T17:05:40.171Z,14.70
2017-09-20T17:08:07.748Z,14.60
2017-09-20T17:10:36.112Z,14.50
2017-09-20T17:13:03.710Z,14.50
2017-09-20T17:15:31.336Z,14.50
2017-09-20T17:17:59.693Z,14.50
2017-09-20T17:20:27.312Z,14.40
2017-09-20T17:22:54.931Z,14.60
2017-09-20T17:25:23.268Z,14.50
2017-09-20T17:27:50.885Z,14.50
2017-09-20T17:30:18.562Z,14.20
2017-09-20T17:32:46.132Z,14.20
2017-09-20T17:35:13.764Z,14.20
2017-09-20T17:37:41.351Z,14.40
2017-09-20T17:40:08.954Z,14.10
2017-09-20T17:42:36.600Z,14.10
2017-09-20T17:45:04.313Z,14.10
2017-09-20T17:47:31.904Z,13.90
2017-09-20T17:49:59.467Z,13.80
2017-09-20T17:52:27.096Z,13.70
2017-09-20T17:54:54.678Z,13.70
2017-09-20T17:57:22.317Z,13.60
2017-09-20T17:59:50.007Z,13.50
2017-09-20T18:02:17.588Z,13.50
2017-09-20T18:04:45.469Z,13.50
2017-09-20T18:07:13.819Z,13.60
2017-09-20T18:09:41.429Z,13.60
2017-09-20T18:12:09.011Z,13.60
2017-09-20T18:14:36.613Z,13.60
2017-09-20T18:17:04.183Z,13.50
2017-09-20T18:19:32.603Z,13.20
2017-09-20T18:22:00.224Z,13.20
2017-09-20T18:24:28.585Z,13.50
2017-09-20T18:26:56.194Z,13.50
2017-09-20T18:29:23.800Z,13.70
2017-09-20T18:31:52.913Z,13.40
2017-09-20T18:34:21.253Z,13.30
2017-09-20T18:36:48.864Z,13.30
2017-09-20T18:39:16.573Z,13.10
2017-09-20T18:41:44.144Z,13.10
2017-09-20T18:44:11.861Z,13.10
2017-09-20T18:46:39.458Z,13.00
2017-09-20T18:49:07.077Z,13.10
2017-09-20T18:51:34.660Z,13.30
2017-09-20T18:54:02.260Z,13.20
2017-09-20T18:56:30.015Z,13.20
2017-09-20T18:58:57.585Z,12.90
2017-09-20T19:01:25.979Z,12.80
2017-09-20T19:03:53.576Z,12.80
2017-09-20T19:06:21.160Z,12.90
2017-09-20T19:08:48.777Z,12.80
2017-09-20T19:11:16.459Z,13.10
2017-09-20T19:13:44.107Z,13.00
2017-09-20T19:16:11.689Z,13.10
2017-09-20T19:18:39.285Z,12.80
2017-09-20T19:21:07.639Z,12.50
2017-09-20T19:23:35.351Z,12.50
2017-09-20T19:26:03.011Z,12.40
2017-09-20T19:28:30.674Z,12.30
2017-09-20T19:30:58.456Z,12.20
2017-09-20T19:33:26.032Z,12.20
2017-09-20T19:35:53.656Z,12.50
2017-09-20T19:38:21.306Z,12.60
2017-09-20T19:40:48.916Z,12.70
2017-09-20T19:43:16.545Z,12.80
2017-09-20T19:45:44.298Z,12.70
2017-09-20T19:48:11.893Z,12.60
2017-09-20T19:50:39.459Z,12.50
2017-09-20T19:53:07.149Z,12.40
2017-09-20T19:55:35.503Z,12.30
2017-09-20T19:58:04.624Z,12.30
2017-09-20T20:00:32.226Z,12.30
2017-09-20T20:02:59.836Z,12.30
2017-09-20T20:05:28.180Z,11.70
2017-09-20T20:07:55.780Z,11.70
2017-09-20T20:10:24.125Z,11.50
2017-09-20T20:12:51.799Z,11.50
2017-09-20T20:15:19.439Z,11.50
2017-09-20T20:17:47.062Z,11.40
2017-09-20T20:20:14.677Z,11.30
2017-09-20T20:22:42.272Z,11.30
2017-09-20T20:25:09.858Z,11.40
2017-09-20T20:27:37.477Z,11.30
2017-09-20T20:30:05.065Z,11.50
2017-09-20T20:32:32.666Z,11.70
2017-09-20T20:35:01.743Z,11.20
2017-09-20T20:37:29.367Z,11.20
2017-09-20T20:39:56.960Z,11.30
2017-09-20T20:42:24.572Z,11.60
2017-09-20T20:44:52.163Z,11.70
2017-09-20T20:47:19.739Z,11.80
2017-09-20T20:49:47.372Z,11.70
2017-09-20T20:52:14.943Z,11.70
2017-09-20T20:54:42.524Z,11.60
2017-09-20T20:57:10.907Z,11.00
2017-09-20T20:59:38.469Z,11.00
2017-09-20T21:02:07.583Z,11.10
2017-09-20T21:04:35.912Z,11.30
2017-09-20T21:07:03.606Z,11.30
2017-09-20T21:09:31.973Z,11.40
2017-09-20T21:11:59.543Z,11.40
2017-09-20T21:14:27.153Z,11.40
2017-09-20T21:16:54.720Z,11.40
2017-09-20T21:19:22.329Z,11.20
2017-09-20T21:21:50.746Z,11.30
2017-09-20T21:24:18.314Z,11.20
2017-09-20T21:26:45.952Z,11.30
2017-09-20T21:29:13.532Z,11.20
2017-09-20T21:31:41.148Z,10.90
2017-09-20T21:34:09.488Z,10.80
2017-09-20T21:36:37.075Z,10.80
2017-09-20T21:39:05.459Z,10.50
2017-09-20T21:41:33.799Z,10.70
2017-09-20T21:44:01.418Z,10.70
2017-09-20T21:46:29.008Z,11.00
2017-09-20T21:48:56.800Z,11.10
2017-09-20T21:51:25.876Z,11.20
2017-09-20T21:53:53.456Z,11.20
2017-09-20T21:56:21.827Z,11.10
2017-09-20T21:58:49.402Z,11.10
2017-09-20T22:01:17.783Z,11.00
2017-09-20T22:03:46.112Z,10.90
2017-09-20T22:06:13.731Z,10.90
2017-09-20T22:08:41.304Z,10.90
2017-09-20T22:11:08.887Z,10.80
2017-09-20T22:13:36.500Z,10.90
2017-09-20T22:16:17.026Z,10.80
2017-09-20T22:18:56.619Z,10.80
2017-09-20T22:21:36.135Z,10.70
2017-09-20T22:24:16.251Z,10.50
2017-09-20T22:26:44.111Z,10.50
2017-09-20T22:29:11.687Z,10.30
2017-09-20T22:31:39.280Z,10.10
2017-09-20T22:34:06.847Z,10.10
2017-09-20T22:36:34.455Z,10.10
2017-09-20T22:39:02.080Z,10.10
2017-09-20T22:41:29.655Z,10.00
2017-09-20T22:43:57.244Z,10.00
2017-09-20T22:46:26.321Z,9.90
2017-09-20T22:48:53.944Z,9.90
2017-09-20T22:51:21.522Z,10.00
2017-09-20T22:53:49.094Z,9.90
2017-09-20T22:56:16.687Z,9.90
2017-09-20T22:58:45.096Z,9.80
2017-09-20T23:01:12.859Z,9.80
2017-09-20T23:03:40.431Z,9.70
2017-09-20T23:06:08.028Z,9.70
2017-09-20T23:08:35.624Z,9.80
2017-09-20T23:11:03.947Z,9.90
2017-09-20T23:13:31.561Z,9.80
2017-09-20T23:15:59.238Z,9.80
2017-09-20T23:18:26.816Z,9.70
2017-09-20T23:20:54.438Z,9.70
2017-09-20T23:23:22.775Z,9.70
2017-09-20T23:25:50.354Z,9.70
2017-09-20T23:28:18.819Z,9.80
2017-09-20T23:30:46.425Z,9.80
2017-09-20T23:33:13.995Z,9.70
2017-09-20T23:35:41.560Z,9.60
2017-09-20T23:38:09.163Z,9.60
2017-09-20T23:40:36.726Z,9.50
2017-09-20T23:43:05.147Z,9.40
2017-09-20T23:45:32.722Z,9.40
2017-09-20T23:48:00.336Z,9.50
2017-09-20T23:50:28.691Z,9.40
2017-09-20T23:52:56.339Z,9.40
2017-09-20T23:55:23.939Z,9.40
2017-09-20T23:57:52.271Z,9.40
